sensor_id;sensor_type;location;lat;lon;timestamp;temperature;humidity
13426;DHT22;6785;57.918;12.530;2022-07-06T00:01:44;12.70;99.90
13426;DHT22;6785;57.918;12.530;2022-07-06T00:04:12;12.70;99.90
13426;DHT22;6785;57.918;12.530;2022-07-06T00:06:40;12.70;99.90
13426;DHT22;6785;57.918;12.530;2022-07-06T00:09:06;12.80;99.90
13426;DHT22;6785;57.918;12.530;2022-07-06T00:11:33;12.70;99.90
13426;DHT22;6785;57.918;12.530;2022-07-06T00:14:00;12.60;99.90
13426;DHT22;6785;57.918;12.530;2022-07-06T00:16:27;12.70;99.90
13426;DHT22;6785;57.918;12.530;2022-07-06T00:18:55;12.80;99.90
13426;DHT22;6785;57.918;12.530;2022-07-06T00:21:23;12.70;99.90
13426;DHT22;6785;57.918;12.530;2022-07-06T00:23:50;12.70;99.90
13426;DHT22;6785;57.918;12.530;2022-07-06T00:26:18;12.70;99.90
13426;DHT22;6785;57.918;12.530;2022-07-06T00:28:45;12.70;99.90
13426;DHT22;6785;57.918;12.530;2022-07-06T00:31:12;12.70;99.90
13426;DHT22;6785;57.918;12.530;2022-07-06T00:33:39;12.70;99.90
13426;DHT22;6785;57.918;12.530;2022-07-06T00:36:06;12.70;99.90
13426;DHT22;6785;57.918;12.530;2022-07-06T00:38:34;12.70;99.90
13426;DHT22;6785;57.918;12.530;2022-07-06T00:41:01;12.70;99.90
13426;DHT22;6785;57.918;12.530;2022-07-06T00:43:28;12.70;99.90
13426;DHT22;6785;57.918;12.530;2022-07-06T00:45:54;12.80;99.90
13426;DHT22;6785;57.918;12.530;2022-07-06T00:48:21;12.80;99.90
13426;DHT22;6785;57.918;12.530;2022-07-06T00:50:48;12.70;99.90
13426;DHT22;6785;57.918;12.530;2022-07-06T00:53:15;12.70;99.90
13426;DHT22;6785;57.918;12.530;2022-07-06T00:55:43;12.70;99.90
13426;DHT22;6785;57.918;12.530;2022-07-06T00:58:10;12.70;99.90
13426;DHT22;6785;57.918;12.530;2022-07-06T01:00:37;12.70;99.90
13426;DHT22;6785;57.918;12.530;2022-07-06T01:03:10;12.80;99.90
13426;DHT22;6785;57.918;12.530;2022-07-06T01:05:37;12.80;99.90
13426;DHT22;6785;57.918;12.530;2022-07-06T01:08:04;12.70;99.90
13426;DHT22;6785;57.918;12.530;2022-07-06T01:10:31;12.70;99.90
13426;DHT22;6785;57.918;12.530;2022-07-06T01:12:59;12.70;99.90
13426;DHT22;6785;57.918;12.530;2022-07-06T01:15:26;12.70;99.90
13426;DHT22;6785;57.918;12.530;2022-07-06T01:17:53;12.60;99.90
13426;DHT22;6785;57.918;12.530;2022-07-06T01:20:22;12.70;99.90
13426;DHT22;6785;57.918;12.530;2022-07-06T01:22:52;12.70;99.90
13426;DHT22;6785;57.918;12.530;2022-07-06T01:25:20;12.60;99.90
13426;DHT22;6785;57.918;12.530;2022-07-06T01:27:47;12.60;99.90
13426;DHT22;6785;57.918;12.530;2022-07-06T01:30:17;12.50;99.90
13426;DHT22;6785;57.918;12.530;2022-07-06T01:32:44;12.50;99.90
13426;DHT22;6785;57.918;12.530;2022-07-06T01:35:14;12.40;99.90
13426;DHT22;6785;57.918;12.530;2022-07-06T01:37:43;12.40;99.90
13426;DHT22;6785;57.918;12.530;2022-07-06T01:40:11;12.30;99.90
13426;DHT22;6785;57.918;12.530;2022-07-06T01:42:39;12.30;99.90
13426;DHT22;6785;57.918;12.530;2022-07-06T01:45:07;12.40;99.90
13426;DHT22;6785;57.918;12.530;2022-07-06T01:47:34;12.30;99.90
13426;DHT22;6785;57.918;12.530;2022-07-06T01:50:06;12.30;99.90
13426;DHT22;6785;57.918;12.530;2022-07-06T01:52:33;12.20;99.90
13426;DHT22;6785;57.918;12.530;2022-07-06T01:55:02;12.20;99.90
13426;DHT22;6785;57.918;12.530;2022-07-06T01:57:28;12.20;99.90
13426;DHT22;6785;57.918;12.530;2022-07-06T01:59:55;12.20;99.90
13426;DHT22;6785;57.918;12.530;2022-07-06T02:02:22;12.20;99.90
13426;DHT22;6785;57.918;12.530;2022-07-06T02:04:49;12.20;99.90
13426;DHT22;6785;57.918;12.530;2022-07-06T02:07:16;12.20;99.90
13426;DHT22;6785;57.918;12.530;2022-07-06T02:09:43;12.20;99.90
13426;DHT22;6785;57.918;12.530;2022-07-06T02:12:11;12.30;99.90
13426;DHT22;6785;57.918;12.530;2022-07-06T02:14:38;12.30;99.90
13426;DHT22;6785;57.918;12.530;2022-07-06T02:17:05;12.20;99.90
13426;DHT22;6785;57.918;12.530;2022-07-06T02:19:32;12.20;99.90
13426;DHT22;6785;57.918;12.530;2022-07-06T02:21:59;12.20;99.90
13426;DHT22;6785;57.918;12.530;2022-07-06T02:24:25;12.20;99.90
13426;DHT22;6785;57.918;12.530;2022-07-06T02:26:52;12.20;99.90
13426;DHT22;6785;57.918;12.530;2022-07-06T02:29:20;12.20;99.90
13426;DHT22;6785;57.918;12.530;2022-07-06T02:31:48;12.20;99.90
13426;DHT22;6785;57.918;12.530;2022-07-06T02:34:15;12.30;99.90
13426;DHT22;6785;57.918;12.530;2022-07-06T02:36:42;12.30;99.90
13426;DHT22;6785;57.918;12.530;2022-07-06T02:39:08;12.20;99.90
13426;DHT22;6785;57.918;12.530;2022-07-06T02:41:35;12.20;99.90
13426;DHT22;6785;57.918;12.530;2022-07-06T02:44:02;12.20;99.90
13426;DHT22;6785;57.918;12.530;2022-07-06T02:46:31;12.20;99.90
13426;DHT22;6785;57.918;12.530;2022-07-06T02:48:57;12.20;99.90
13426;DHT22;6785;57.918;12.530;2022-07-06T02:51:24;12.30;99.90
13426;DHT22;6785;57.918;12.530;2022-07-06T02:53:51;12.20;99.90
13426;DHT22;6785;57.918;12.530;2022-07-06T02:56:18;12.30;99.90
13426;DHT22;6785;57.918;12.530;2022-07-06T02:58:45;12.40;99.90
13426;DHT22;6785;57.918;12.530;2022-07-06T03:01:12;12.40;99.90
13426;DHT22;6785;57.918;12.530;2022-07-06T03:03:40;12.30;99.90
13426;DHT22;6785;57.918;12.530;2022-07-06T03:06:07;12.30;99.90
13426;DHT22;6785;57.918;12.530;2022-07-06T03:08:34;12.30;99.90
13426;DHT22;6785;57.918;12.530;2022-07-06T03:11:02;12.30;99.90
13426;DHT22;6785;57.918;12.530;2022-07-06T03:13:29;12.30;99.90
13426;DHT22;6785;57.918;12.530;2022-07-06T03:15:56;12.40;99.90
13426;DHT22;6785;57.918;12.530;2022-07-06T03:18:23;12.50;99.90
13426;DHT22;6785;57.918;12.530;2022-07-06T03:20:51;12.40;99.90
13426;DHT22;6785;57.918;12.530;2022-07-06T03:23:18;12.50;99.90
13426;DHT22;6785;57.918;12.530;2022-07-06T03:25:45;12.40;99.90
13426;DHT22;6785;57.918;12.530;2022-07-06T03:28:12;12.40;99.90
13426;DHT22;6785;57.918;12.530;2022-07-06T03:30:39;12.50;99.90
13426;DHT22;6785;57.918;12.530;2022-07-06T03:33:06;12.50;99.90
13426;DHT22;6785;57.918;12.530;2022-07-06T03:35:33;12.50;99.90
13426;DHT22;6785;57.918;12.530;2022-07-06T03:38:02;12.50;99.90
13426;DHT22;6785;57.918;12.530;2022-07-06T03:40:29;12.60;99.90
13426;DHT22;6785;57.918;12.530;2022-07-06T03:42:56;12.60;99.90
13426;DHT22;6785;57.918;12.530;2022-07-06T03:45:22;12.70;99.90
13426;DHT22;6785;57.918;12.530;2022-07-06T03:47:49;12.70;99.90
13426;DHT22;6785;57.918;12.530;2022-07-06T03:50:16;12.70;99.90
13426;DHT22;6785;57.918;12.530;2022-07-06T03:52:43;12.70;99.90
13426;DHT22;6785;57.918;12.530;2022-07-06T03:55:12;12.80;99.90
13426;DHT22;6785;57.918;12.530;2022-07-06T03:57:39;12.80;99.90
13426;DHT22;6785;57.918;12.530;2022-07-06T04:00:07;12.80;99.90
13426;DHT22;6785;57.918;12.530;2022-07-06T04:02:35;12.90;99.90
13426;DHT22;6785;57.918;12.530;2022-07-06T04:05:02;12.90;99.90
13426;DHT22;6785;57.918;12.530;2022-07-06T04:07:29;13.00;99.90
13426;DHT22;6785;57.918;12.530;2022-07-06T04:09:55;13.00;99.90
13426;DHT22;6785;57.918;12.530;2022-07-06T04:12:24;13.10;99.90
13426;DHT22;6785;57.918;12.530;2022-07-06T04:14:51;13.20;99.90
13426;DHT22;6785;57.918;12.530;2022-07-06T04:17:17;13.30;99.90
13426;DHT22;6785;57.918;12.530;2022-07-06T04:19:58;13.30;99.90
13426;DHT22;6785;57.918;12.530;2022-07-06T04:22:25;13.40;99.90
13426;DHT22;6785;57.918;12.530;2022-07-06T04:24:52;13.40;99.90
13426;DHT22;6785;57.918;12.530;2022-07-06T04:27:19;13.40;99.90
13426;DHT22;6785;57.918;12.530;2022-07-06T04:29:47;13.50;99.90
13426;DHT22;6785;57.918;12.530;2022-07-06T04:32:14;13.60;99.90
13426;DHT22;6785;57.918;12.530;2022-07-06T04:34:41;13.60;99.90
13426;DHT22;6785;57.918;12.530;2022-07-06T04:37:08;13.60;99.90
13426;DHT22;6785;57.918;12.530;2022-07-06T04:39:34;13.80;99.90
13426;DHT22;6785;57.918;12.530;2022-07-06T04:42:01;13.90;99.90
13426;DHT22;6785;57.918;12.530;2022-07-06T04:44:28;13.90;99.90
13426;DHT22;6785;57.918;12.530;2022-07-06T04:46:57;13.90;99.90
13426;DHT22;6785;57.918;12.530;2022-07-06T04:49:24;14.00;99.90
13426;DHT22;6785;57.918;12.530;2022-07-06T04:51:51;14.00;99.90
13426;DHT22;6785;57.918;12.530;2022-07-06T04:54:18;14.10;99.90
13426;DHT22;6785;57.918;12.530;2022-07-06T04:56:44;14.10;99.90
13426;DHT22;6785;57.918;12.530;2022-07-06T04:59:12;14.20;99.90
13426;DHT22;6785;57.918;12.530;2022-07-06T05:01:39;14.20;99.90
13426;DHT22;6785;57.918;12.530;2022-07-06T05:04:07;14.20;99.90
13426;DHT22;6785;57.918;12.530;2022-07-06T05:06:35;14.20;99.90
13426;DHT22;6785;57.918;12.530;2022-07-06T05:09:02;14.30;99.90
13426;DHT22;6785;57.918;12.530;2022-07-06T05:11:29;14.40;99.90
13426;DHT22;6785;57.918;12.530;2022-07-06T05:13:56;14.40;99.90
13426;DHT22;6785;57.918;12.530;2022-07-06T05:16:23;14.50;99.90
13426;DHT22;6785;57.918;12.530;2022-07-06T05:18:50;14.50;99.90
13426;DHT22;6785;57.918;12.530;2022-07-06T05:21:18;14.50;99.90
13426;DHT22;6785;57.918;12.530;2022-07-06T05:23:45;14.40;99.90
13426;DHT22;6785;57.918;12.530;2022-07-06T05:26:12;14.50;99.90
13426;DHT22;6785;57.918;12.530;2022-07-06T05:28:38;14.60;99.90
13426;DHT22;6785;57.918;12.530;2022-07-06T05:31:05;14.60;99.90
13426;DHT22;6785;57.918;12.530;2022-07-06T05:33:32;14.60;99.90
13426;DHT22;6785;57.918;12.530;2022-07-06T05:35:59;14.70;99.90
13426;DHT22;6785;57.918;12.530;2022-07-06T05:38:27;14.80;99.90
13426;DHT22;6785;57.918;12.530;2022-07-06T05:40:54;14.80;99.90
13426;DHT22;6785;57.918;12.530;2022-07-06T05:43:21;14.80;99.90
13426;DHT22;6785;57.918;12.530;2022-07-06T05:45:48;14.90;99.90
13426;DHT22;6785;57.918;12.530;2022-07-06T05:48:15;15.00;99.90
13426;DHT22;6785;57.918;12.530;2022-07-06T05:50:59;15.00;99.90
13426;DHT22;6785;57.918;12.530;2022-07-06T05:53:27;15.10;99.90
13426;DHT22;6785;57.918;12.530;2022-07-06T05:55:54;15.00;99.90
13426;DHT22;6785;57.918;12.530;2022-07-06T05:58:21;15.10;99.90
13426;DHT22;6785;57.918;12.530;2022-07-06T06:00:50;15.00;99.90
13426;DHT22;6785;57.918;12.530;2022-07-06T06:03:17;15.20;99.90
13426;DHT22;6785;57.918;12.530;2022-07-06T06:05:44;15.20;99.90
13426;DHT22;6785;57.918;12.530;2022-07-06T06:08:11;15.20;99.90
13426;DHT22;6785;57.918;12.530;2022-07-06T06:10:39;15.40;99.90
13426;DHT22;6785;57.918;12.530;2022-07-06T06:13:06;15.40;99.90
13426;DHT22;6785;57.918;12.530;2022-07-06T06:15:33;15.50;99.90
13426;DHT22;6785;57.918;12.530;2022-07-06T06:18:01;15.70;99.90
13426;DHT22;6785;57.918;12.530;2022-07-06T06:20:29;15.60;99.90
13426;DHT22;6785;57.918;12.530;2022-07-06T06:22:57;15.60;99.90
13426;DHT22;6785;57.918;12.530;2022-07-06T06:25:28;15.70;99.90
13426;DHT22;6785;57.918;12.530;2022-07-06T06:27:57;16.00;99.90
13426;DHT22;6785;57.918;12.530;2022-07-06T06:30:23;16.10;99.90
13426;DHT22;6785;57.918;12.530;2022-07-06T06:32:50;16.10;99.90
13426;DHT22;6785;57.918;12.530;2022-07-06T06:35:17;16.20;99.90
13426;DHT22;6785;57.918;12.530;2022-07-06T06:37:44;16.20;99.90
13426;DHT22;6785;57.918;12.530;2022-07-06T06:40:11;16.20;99.90
13426;DHT22;6785;57.918;12.530;2022-07-06T06:42:38;16.40;99.90
13426;DHT22;6785;57.918;12.530;2022-07-06T06:45:08;16.30;99.90
13426;DHT22;6785;57.918;12.530;2022-07-06T06:47:35;16.50;99.90
13426;DHT22;6785;57.918;12.530;2022-07-06T06:50:02;16.70;99.90
13426;DHT22;6785;57.918;12.530;2022-07-06T06:52:29;16.90;99.90
13426;DHT22;6785;57.918;12.530;2022-07-06T06:54:56;17.20;99.90
13426;DHT22;6785;57.918;12.530;2022-07-06T06:57:23;17.10;99.90
13426;DHT22;6785;57.918;12.530;2022-07-06T06:59:49;17.10;99.90
13426;DHT22;6785;57.918;12.530;2022-07-06T07:02:18;17.30;99.90
13426;DHT22;6785;57.918;12.530;2022-07-06T07:04:44;17.30;99.90
13426;DHT22;6785;57.918;12.530;2022-07-06T07:07:11;17.50;99.90
13426;DHT22;6785;57.918;12.530;2022-07-06T07:09:38;17.50;99.90
13426;DHT22;6785;57.918;12.530;2022-07-06T07:12:05;17.50;99.90
13426;DHT22;6785;57.918;12.530;2022-07-06T07:14:32;17.70;99.90
13426;DHT22;6785;57.918;12.530;2022-07-06T07:16:59;17.80;99.90
13426;DHT22;6785;57.918;12.530;2022-07-06T07:19:27;18.00;99.90
13426;DHT22;6785;57.918;12.530;2022-07-06T07:21:54;18.00;99.90
13426;DHT22;6785;57.918;12.530;2022-07-06T07:24:21;17.80;99.90
13426;DHT22;6785;57.918;12.530;2022-07-06T07:26:48;18.10;99.90
13426;DHT22;6785;57.918;12.530;2022-07-06T07:29:15;18.30;99.90
13426;DHT22;6785;57.918;12.530;2022-07-06T07:31:41;18.40;99.90
13426;DHT22;6785;57.918;12.530;2022-07-06T07:34:08;18.20;99.90
13426;DHT22;6785;57.918;12.530;2022-07-06T07:36:36;18.20;99.90
13426;DHT22;6785;57.918;12.530;2022-07-06T07:39:03;18.30;99.90
13426;DHT22;6785;57.918;12.530;2022-07-06T07:41:30;18.50;99.90
13426;DHT22;6785;57.918;12.530;2022-07-06T07:43:57;18.60;99.90
13426;DHT22;6785;57.918;12.530;2022-07-06T07:46:24;18.60;99.90
13426;DHT22;6785;57.918;12.530;2022-07-06T07:48:51;18.40;99.90
13426;DHT22;6785;57.918;12.530;2022-07-06T07:51:18;18.60;99.90
13426;DHT22;6785;57.918;12.530;2022-07-06T07:53:46;18.60;99.90
13426;DHT22;6785;57.918;12.530;2022-07-06T07:56:13;18.70;99.90
13426;DHT22;6785;57.918;12.530;2022-07-06T07:58:40;18.70;99.90
13426;DHT22;6785;57.918;12.530;2022-07-06T08:01:07;18.80;99.90
13426;DHT22;6785;57.918;12.530;2022-07-06T08:03:34;19.20;99.90
13426;DHT22;6785;57.918;12.530;2022-07-06T08:06:01;19.50;99.90
13426;DHT22;6785;57.918;12.530;2022-07-06T08:08:27;19.60;99.90
13426;DHT22;6785;57.918;12.530;2022-07-06T08:10:56;19.60;99.90
13426;DHT22;6785;57.918;12.530;2022-07-06T08:13:22;19.40;99.90
13426;DHT22;6785;57.918;12.530;2022-07-06T08:15:49;19.50;99.90
13426;DHT22;6785;57.918;12.530;2022-07-06T08:18:16;19.50;99.90
13426;DHT22;6785;57.918;12.530;2022-07-06T08:20:43;19.50;99.90
13426;DHT22;6785;57.918;12.530;2022-07-06T08:23:10;19.50;99.90
13426;DHT22;6785;57.918;12.530;2022-07-06T08:25:37;19.30;99.90
13426;DHT22;6785;57.918;12.530;2022-07-06T08:28:05;19.10;99.90
13426;DHT22;6785;57.918;12.530;2022-07-06T08:30:32;19.20;99.90
13426;DHT22;6785;57.918;12.530;2022-07-06T08:33:00;19.30;99.90
13426;DHT22;6785;57.918;12.530;2022-07-06T08:35:27;19.30;99.90
13426;DHT22;6785;57.918;12.530;2022-07-06T08:37:54;19.30;99.90
13426;DHT22;6785;57.918;12.530;2022-07-06T08:40:21;19.20;99.90
13426;DHT22;6785;57.918;12.530;2022-07-06T08:42:53;19.40;99.90
13426;DHT22;6785;57.918;12.530;2022-07-06T08:45:22;19.20;99.90
13426;DHT22;6785;57.918;12.530;2022-07-06T08:47:49;19.30;99.90
13426;DHT22;6785;57.918;12.530;2022-07-06T08:50:16;19.20;99.90
13426;DHT22;6785;57.918;12.530;2022-07-06T08:52:46;19.20;99.90
13426;DHT22;6785;57.918;12.530;2022-07-06T08:55:14;19.20;99.90
13426;DHT22;6785;57.918;12.530;2022-07-06T08:57:41;19.40;99.90
13426;DHT22;6785;57.918;12.530;2022-07-06T09:00:10;19.50;99.90
13426;DHT22;6785;57.918;12.530;2022-07-06T09:02:40;19.70;99.90
13426;DHT22;6785;57.918;12.530;2022-07-06T09:05:08;19.50;99.90
13426;DHT22;6785;57.918;12.530;2022-07-06T09:07:35;19.30;99.90
13426;DHT22;6785;57.918;12.530;2022-07-06T09:10:03;19.20;99.90
13426;DHT22;6785;57.918;12.530;2022-07-06T09:12:31;19.10;99.90
13426;DHT22;6785;57.918;12.530;2022-07-06T09:14:58;18.80;99.90
13426;DHT22;6785;57.918;12.530;2022-07-06T09:17:26;18.90;99.90
13426;DHT22;6785;57.918;12.530;2022-07-06T09:19:55;19.10;99.90
13426;DHT22;6785;57.918;12.530;2022-07-06T09:22:26;19.00;99.90
13426;DHT22;6785;57.918;12.530;2022-07-06T09:24:55;18.90;99.90
13426;DHT22;6785;57.918;12.530;2022-07-06T09:27:27;18.90;99.90
13426;DHT22;6785;57.918;12.530;2022-07-06T09:29:54;18.90;99.90
13426;DHT22;6785;57.918;12.530;2022-07-06T09:32:20;19.20;99.90
13426;DHT22;6785;57.918;12.530;2022-07-06T09:34:48;19.00;99.90
13426;DHT22;6785;57.918;12.530;2022-07-06T09:37:16;19.10;99.90
13426;DHT22;6785;57.918;12.530;2022-07-06T09:39:43;19.20;99.90
13426;DHT22;6785;57.918;12.530;2022-07-06T09:42:11;19.30;99.90
13426;DHT22;6785;57.918;12.530;2022-07-06T09:44:39;19.60;99.90
13426;DHT22;6785;57.918;12.530;2022-07-06T09:47:08;19.90;99.90
13426;DHT22;6785;57.918;12.530;2022-07-06T09:49:36;19.80;99.90
13426;DHT22;6785;57.918;12.530;2022-07-06T09:52:05;19.60;99.90
13426;DHT22;6785;57.918;12.530;2022-07-06T09:54:34;19.50;99.90
13426;DHT22;6785;57.918;12.530;2022-07-06T09:57:02;19.50;99.90
13426;DHT22;6785;57.918;12.530;2022-07-06T09:59:31;19.30;99.90
13426;DHT22;6785;57.918;12.530;2022-07-06T10:02:00;18.90;99.90
13426;DHT22;6785;57.918;12.530;2022-07-06T10:04:28;19.00;99.90
13426;DHT22;6785;57.918;12.530;2022-07-06T10:06:56;19.20;99.90
13426;DHT22;6785;57.918;12.530;2022-07-06T10:09:24;19.10;99.90
13426;DHT22;6785;57.918;12.530;2022-07-06T10:11:54;19.30;99.90
13426;DHT22;6785;57.918;12.530;2022-07-06T10:14:23;19.40;99.90
13426;DHT22;6785;57.918;12.530;2022-07-06T10:16:50;19.20;99.90
13426;DHT22;6785;57.918;12.530;2022-07-06T10:19:20;19.10;99.90
13426;DHT22;6785;57.918;12.530;2022-07-06T10:21:48;18.90;99.90
13426;DHT22;6785;57.918;12.530;2022-07-06T10:24:18;18.90;99.90
13426;DHT22;6785;57.918;12.530;2022-07-06T10:26:46;18.90;99.90
13426;DHT22;6785;57.918;12.530;2022-07-06T10:29:14;18.90;99.90
13426;DHT22;6785;57.918;12.530;2022-07-06T10:31:44;18.90;99.90
13426;DHT22;6785;57.918;12.530;2022-07-06T10:34:13;18.60;99.90
13426;DHT22;6785;57.918;12.530;2022-07-06T10:36:42;18.70;99.90
13426;DHT22;6785;57.918;12.530;2022-07-06T10:39:10;18.80;99.90
13426;DHT22;6785;57.918;12.530;2022-07-06T10:41:55;18.90;99.90
13426;DHT22;6785;57.918;12.530;2022-07-06T10:44:24;19.10;99.90
13426;DHT22;6785;57.918;12.530;2022-07-06T10:46:53;19.00;99.90
13426;DHT22;6785;57.918;12.530;2022-07-06T10:49:21;19.00;99.90
13426;DHT22;6785;57.918;12.530;2022-07-06T10:51:48;19.20;99.90
13426;DHT22;6785;57.918;12.530;2022-07-06T10:54:16;19.40;99.90
13426;DHT22;6785;57.918;12.530;2022-07-06T10:56:45;19.50;99.90
13426;DHT22;6785;57.918;12.530;2022-07-06T10:59:13;19.70;99.90
13426;DHT22;6785;57.918;12.530;2022-07-06T11:02:11;19.60;99.90
13426;DHT22;6785;57.918;12.530;2022-07-06T11:04:39;19.50;99.90
13426;DHT22;6785;57.918;12.530;2022-07-06T11:07:10;19.50;99.90
13426;DHT22;6785;57.918;12.530;2022-07-06T11:09:37;19.60;99.90
13426;DHT22;6785;57.918;12.530;2022-07-06T11:12:17;19.40;99.90
13426;DHT22;6785;57.918;12.530;2022-07-06T11:14:46;19.20;99.90
13426;DHT22;6785;57.918;12.530;2022-07-06T11:17:15;19.10;99.90
13426;DHT22;6785;57.918;12.530;2022-07-06T11:19:49;19.10;99.90
13426;DHT22;6785;57.918;12.530;2022-07-06T11:22:17;19.00;99.90
13426;DHT22;6785;57.918;12.530;2022-07-06T11:24:45;19.10;99.90
13426;DHT22;6785;57.918;12.530;2022-07-06T11:27:13;19.10;99.90
13426;DHT22;6785;57.918;12.530;2022-07-06T11:29:40;19.40;99.90
13426;DHT22;6785;57.918;12.530;2022-07-06T11:32:08;19.30;99.90
13426;DHT22;6785;57.918;12.530;2022-07-06T11:34:39;19.50;99.90
13426;DHT22;6785;57.918;12.530;2022-07-06T11:37:07;19.50;99.90
13426;DHT22;6785;57.918;12.530;2022-07-06T11:39:36;19.20;99.90
13426;DHT22;6785;57.918;12.530;2022-07-06T11:42:06;19.30;99.90
13426;DHT22;6785;57.918;12.530;2022-07-06T11:44:33;19.30;99.90
13426;DHT22;6785;57.918;12.530;2022-07-06T11:47:01;19.40;99.90
13426;DHT22;6785;57.918;12.530;2022-07-06T11:49:29;19.50;99.90
13426;DHT22;6785;57.918;12.530;2022-07-06T11:51:58;19.70;99.90
13426;DHT22;6785;57.918;12.530;2022-07-06T11:54:25;19.70;99.90
13426;DHT22;6785;57.918;12.530;2022-07-06T11:56:54;19.70;99.90
13426;DHT22;6785;57.918;12.530;2022-07-06T11:59:22;19.80;99.90
13426;DHT22;6785;57.918;12.530;2022-07-06T12:01:50;20.00;99.90
13426;DHT22;6785;57.918;12.530;2022-07-06T12:04:24;19.90;99.90
13426;DHT22;6785;57.918;12.530;2022-07-06T12:06:51;19.80;99.90
13426;DHT22;6785;57.918;12.530;2022-07-06T12:09:19;19.60;99.90
13426;DHT22;6785;57.918;12.530;2022-07-06T12:11:47;19.50;99.90
13426;DHT22;6785;57.918;12.530;2022-07-06T12:14:15;19.50;99.90
13426;DHT22;6785;57.918;12.530;2022-07-06T12:16:43;19.30;99.90
13426;DHT22;6785;57.918;12.530;2022-07-06T12:19:10;19.30;99.90
13426;DHT22;6785;57.918;12.530;2022-07-06T12:21:43;19.20;99.90
13426;DHT22;6785;57.918;12.530;2022-07-06T12:24:16;19.30;99.90
13426;DHT22;6785;57.918;12.530;2022-07-06T12:26:44;19.50;99.90
13426;DHT22;6785;57.918;12.530;2022-07-06T12:29:12;19.40;99.90
13426;DHT22;6785;57.918;12.530;2022-07-06T12:31:41;19.60;99.90
13426;DHT22;6785;57.918;12.530;2022-07-06T12:34:13;19.80;99.90
13426;DHT22;6785;57.918;12.530;2022-07-06T12:36:45;19.80;99.90
13426;DHT22;6785;57.918;12.530;2022-07-06T12:39:13;19.80;99.90
13426;DHT22;6785;57.918;12.530;2022-07-06T12:41:46;19.90;99.90
13426;DHT22;6785;57.918;12.530;2022-07-06T12:44:16;20.00;99.90
13426;DHT22;6785;57.918;12.530;2022-07-06T12:46:44;20.10;99.90
13426;DHT22;6785;57.918;12.530;2022-07-06T12:49:16;20.00;99.90
13426;DHT22;6785;57.918;12.530;2022-07-06T12:51:58;19.90;99.90
13426;DHT22;6785;57.918;12.530;2022-07-06T12:54:28;19.90;99.90
13426;DHT22;6785;57.918;12.530;2022-07-06T12:56:58;20.00;99.90
13426;DHT22;6785;57.918;12.530;2022-07-06T12:59:25;20.00;99.90
13426;DHT22;6785;57.918;12.530;2022-07-06T13:01:52;20.20;99.90
13426;DHT22;6785;57.918;12.530;2022-07-06T13:04:22;20.00;99.90
13426;DHT22;6785;57.918;12.530;2022-07-06T13:06:49;19.90;99.90
13426;DHT22;6785;57.918;12.530;2022-07-06T13:09:16;19.90;99.90
13426;DHT22;6785;57.918;12.530;2022-07-06T13:11:44;20.00;99.90
13426;DHT22;6785;57.918;12.530;2022-07-06T13:14:13;20.10;99.90
13426;DHT22;6785;57.918;12.530;2022-07-06T13:16:40;20.20;99.90
13426;DHT22;6785;57.918;12.530;2022-07-06T13:19:07;20.30;99.90
13426;DHT22;6785;57.918;12.530;2022-07-06T13:21:35;20.20;99.90
13426;DHT22;6785;57.918;12.530;2022-07-06T13:24:03;20.10;99.90
13426;DHT22;6785;57.918;12.530;2022-07-06T13:26:30;19.90;99.90
13426;DHT22;6785;57.918;12.530;2022-07-06T13:28:59;19.90;99.90
13426;DHT22;6785;57.918;12.530;2022-07-06T13:31:27;19.80;99.90
13426;DHT22;6785;57.918;12.530;2022-07-06T13:33:54;19.90;99.90
13426;DHT22;6785;57.918;12.530;2022-07-06T13:36:22;20.00;99.90
13426;DHT22;6785;57.918;12.530;2022-07-06T13:38:49;20.00;99.90
13426;DHT22;6785;57.918;12.530;2022-07-06T13:41:16;20.00;99.90
13426;DHT22;6785;57.918;12.530;2022-07-06T13:43:43;20.00;99.90
13426;DHT22;6785;57.918;12.530;2022-07-06T13:46:10;19.90;99.90
13426;DHT22;6785;57.918;12.530;2022-07-06T13:48:38;19.80;99.90
13426;DHT22;6785;57.918;12.530;2022-07-06T13:51:06;19.90;99.90
13426;DHT22;6785;57.918;12.530;2022-07-06T13:53:32;20.10;99.90
13426;DHT22;6785;57.918;12.530;2022-07-06T13:56:00;20.10;99.90
13426;DHT22;6785;57.918;12.530;2022-07-06T13:58:27;20.10;99.90
13426;DHT22;6785;57.918;12.530;2022-07-06T14:00:54;20.10;99.90
13426;DHT22;6785;57.918;12.530;2022-07-06T14:03:21;20.10;99.90
13426;DHT22;6785;57.918;12.530;2022-07-06T14:05:55;20.20;99.90
13426;DHT22;6785;57.918;12.530;2022-07-06T14:08:22;20.30;99.90
13426;DHT22;6785;57.918;12.530;2022-07-06T14:10:49;20.20;99.90
13426;DHT22;6785;57.918;12.530;2022-07-06T14:13:16;20.00;99.90
13426;DHT22;6785;57.918;12.530;2022-07-06T14:15:43;19.90;99.90
13426;DHT22;6785;57.918;12.530;2022-07-06T14:18:10;19.80;99.90
13426;DHT22;6785;57.918;12.530;2022-07-06T14:20:37;19.70;99.90
13426;DHT22;6785;57.918;12.530;2022-07-06T14:23:06;19.70;99.90
13426;DHT22;6785;57.918;12.530;2022-07-06T14:25:32;19.70;99.90
13426;DHT22;6785;57.918;12.530;2022-07-06T14:27:59;19.90;99.90
13426;DHT22;6785;57.918;12.530;2022-07-06T14:30:27;19.90;99.90
13426;DHT22;6785;57.918;12.530;2022-07-06T14:32:54;19.80;99.90
13426;DHT22;6785;57.918;12.530;2022-07-06T14:35:21;19.90;99.90
13426;DHT22;6785;57.918;12.530;2022-07-06T14:37:50;19.60;99.90
13426;DHT22;6785;57.918;12.530;2022-07-06T14:40:19;19.60;99.90
13426;DHT22;6785;57.918;12.530;2022-07-06T14:42:46;19.50;99.90
13426;DHT22;6785;57.918;12.530;2022-07-06T14:45:13;19.50;99.90
13426;DHT22;6785;57.918;12.530;2022-07-06T14:47:40;19.40;99.90
13426;DHT22;6785;57.918;12.530;2022-07-06T14:50:07;19.50;99.90
13426;DHT22;6785;57.918;12.530;2022-07-06T14:52:34;19.60;99.90
13426;DHT22;6785;57.918;12.530;2022-07-06T14:55:01;19.40;99.90
13426;DHT22;6785;57.918;12.530;2022-07-06T14:57:29;19.30;99.90
13426;DHT22;6785;57.918;12.530;2022-07-06T14:59:56;19.10;99.90
13426;DHT22;6785;57.918;12.530;2022-07-06T15:02:23;19.00;99.90
13426;DHT22;6785;57.918;12.530;2022-07-06T15:04:50;19.00;99.90
13426;DHT22;6785;57.918;12.530;2022-07-06T15:07:17;19.00;99.90
13426;DHT22;6785;57.918;12.530;2022-07-06T15:09:44;18.80;99.90
13426;DHT22;6785;57.918;12.530;2022-07-06T15:12:11;18.60;99.90
13426;DHT22;6785;57.918;12.530;2022-07-06T15:14:39;18.50;99.90
13426;DHT22;6785;57.918;12.530;2022-07-06T15:17:06;18.40;99.90
13426;DHT22;6785;57.918;12.530;2022-07-06T15:19:33;18.30;99.90
13426;DHT22;6785;57.918;12.530;2022-07-06T15:22:00;18.10;99.90
13426;DHT22;6785;57.918;12.530;2022-07-06T15:24:27;17.90;99.90
13426;DHT22;6785;57.918;12.530;2022-07-06T15:26:54;18.00;99.90
13426;DHT22;6785;57.918;12.530;2022-07-06T15:29:21;18.00;99.90
13426;DHT22;6785;57.918;12.530;2022-07-06T15:31:49;17.90;99.90
13426;DHT22;6785;57.918;12.530;2022-07-06T15:34:16;17.90;99.90